createdAt,value
2023-05-16T00:00:40.836Z,10.47
2023-05-16T00:03:07.969Z,10.48
2023-05-16T00:06:01.023Z,10.47
2023-05-16T00:08:46.622Z,10.46
2023-05-16T00:11:29.706Z,10.47
2023-05-16T00:14:04.528Z,10.45
2023-05-16T00:16:31.838Z,10.42
2023-05-16T00:19:01.488Z,10.38
2023-05-16T00:21:28.573Z,10.38
2023-05-16T00:23:55.559Z,10.39
2023-05-16T00:26:22.536Z,10.37
2023-05-16T00:28:49.534Z,10.35
2023-05-16T00:31:16.568Z,10.32
2023-05-16T00:33:43.700Z,10.29
2023-05-16T00:36:11.547Z,10.27
2023-05-16T00:38:38.526Z,10.24
2023-05-16T00:41:05.489Z,10.19
2023-05-16T00:43:32.418Z,10.15
2023-05-16T00:46:00.834Z,10.12
2023-05-16T00:48:28.041Z,10.10
2023-05-16T00:50:55.074Z,10.07
2023-05-16T00:53:22.084Z,10.05
2023-05-16T00:55:49.090Z,10.03
2023-05-16T00:58:16.704Z,10.01
2023-05-16T01:00:48.402Z,9.96
2023-05-16T01:03:15.721Z,9.92
2023-05-16T01:06:00.221Z,9.89
2023-05-16T01:08:49.483Z,9.86
2023-05-16T01:11:44.258Z,9.78
2023-05-16T01:14:34.736Z,9.72
2023-05-16T01:17:48.354Z,9.71
2023-05-16T01:20:32.242Z,9.71
2023-05-16T01:23:17.848Z,9.65
2023-05-16T01:26:17.188Z,9.70
2023-05-16T01:28:47.158Z,9.69
2023-05-16T01:31:14.283Z,9.72
2023-05-16T01:33:41.479Z,9.71
2023-05-16T01:36:22.059Z,9.73
2023-05-16T01:39:04.271Z,9.72
2023-05-16T01:41:56.000Z,9.60
2023-05-16T01:44:25.277Z,9.72
2023-05-16T01:46:58.439Z,9.75
2023-05-16T01:49:49.009Z,9.73
2023-05-16T01:52:23.288Z,9.72
2023-05-16T01:54:54.472Z,9.71
2023-05-16T01:57:26.412Z,9.66
2023-05-16T01:59:54.057Z,9.54
2023-05-16T02:02:21.334Z,9.63
2023-05-16T02:04:48.274Z,9.61
2023-05-16T02:07:15.333Z,9.58
2023-05-16T02:09:42.356Z,9.57
2023-05-16T02:12:09.291Z,9.56
2023-05-16T02:14:36.201Z,9.54
2023-05-16T02:17:03.143Z,9.47
2023-05-16T02:19:30.304Z,9.51
2023-05-16T02:21:57.628Z,9.49
2023-05-16T02:24:24.580Z,9.46
2023-05-16T02:26:51.449Z,9.45
2023-05-16T02:29:19.088Z,9.45
2023-05-16T02:31:46.652Z,9.47
2023-05-16T02:34:13.636Z,9.48
2023-05-16T02:36:40.632Z,9.52
2023-05-16T02:39:09.398Z,9.52
2023-05-16T02:41:36.470Z,9.54
2023-05-16T02:44:03.354Z,9.54
2023-05-16T02:46:35.643Z,9.53
2023-05-16T02:49:03.915Z,9.51
2023-05-16T02:51:30.820Z,9.59
2023-05-16T02:53:59.914Z,9.62
2023-05-16T02:56:27.985Z,9.63
2023-05-16T02:58:55.805Z,9.64
2023-05-16T03:01:23.072Z,9.60
2023-05-16T03:03:50.186Z,9.63
2023-05-16T03:06:17.257Z,9.55
2023-05-16T03:08:44.144Z,9.60
2023-05-16T03:11:11.329Z,9.61
2023-05-16T03:13:38.407Z,9.56
2023-05-16T03:16:07.234Z,9.54
2023-05-16T03:18:34.191Z,9.47
2023-05-16T03:21:02.248Z,9.47
2023-05-16T03:23:29.159Z,9.42
2023-05-16T03:25:56.416Z,9.43
2023-05-16T03:28:23.341Z,9.41
2023-05-16T03:30:50.344Z,9.31
2023-05-16T03:33:17.272Z,9.35
2023-05-16T03:35:44.310Z,9.42
2023-05-16T03:38:11.547Z,9.43
2023-05-16T03:40:38.593Z,9.45
2023-05-16T03:43:05.598Z,9.51
2023-05-16T03:45:32.550Z,9.55
2023-05-16T03:47:59.626Z,9.57
2023-05-16T03:50:26.570Z,9.57
2023-05-16T03:52:54.640Z,9.46
2023-05-16T03:55:22.264Z,9.47
2023-05-16T03:57:50.601Z,9.47
2023-05-16T04:00:17.741Z,9.52
2023-05-16T04:02:45.409Z,9.51
2023-05-16T04:05:12.690Z,9.40
2023-05-16T04:07:40.691Z,9.39
2023-05-16T04:10:09.334Z,9.41
2023-05-16T04:12:36.717Z,9.47
2023-05-16T04:15:04.830Z,9.53
2023-05-16T04:17:31.951Z,9.56
2023-05-16T04:19:59.243Z,9.70
2023-05-16T04:22:26.319Z,9.75
2023-05-16T04:24:53.236Z,9.87
2023-05-16T04:27:20.259Z,9.94
2023-05-16T04:29:47.329Z,10.08
2023-05-16T04:32:14.211Z,10.25
2023-05-16T04:34:41.356Z,10.47
2023-05-16T04:37:09.731Z,10.77
2023-05-16T04:39:38.106Z,11.39
2023-05-16T04:42:05.591Z,12.20
2023-05-16T04:44:32.594Z,13.05
2023-05-16T04:46:59.852Z,13.98
2023-05-16T04:49:26.804Z,14.67
2023-05-16T04:51:53.771Z,15.31
2023-05-16T04:54:20.919Z,15.65
2023-05-16T04:56:47.823Z,16.01
2023-05-16T04:59:15.395Z,16.30
2023-05-16T05:01:42.392Z,16.77
2023-05-16T05:04:09.298Z,17.25
2023-05-16T05:06:36.240Z,17.53
2023-05-16T05:09:03.288Z,17.61
2023-05-16T05:11:30.191Z,17.58
2023-05-16T05:13:57.125Z,17.86
2023-05-16T05:16:24.274Z,17.91
2023-05-16T05:18:51.477Z,17.93
2023-05-16T05:21:20.508Z,17.92
2023-05-16T05:23:49.473Z,17.89
2023-05-16T05:26:16.362Z,17.77
2023-05-16T05:28:47.920Z,17.69
2023-05-16T05:31:21.204Z,17.71
2023-05-16T05:33:48.795Z,17.83
2023-05-16T05:36:16.677Z,17.65
2023-05-16T05:38:43.540Z,18.03
2023-05-16T05:41:12.126Z,18.22
2023-05-16T05:43:39.200Z,18.04
2023-05-16T05:46:07.449Z,18.17
2023-05-16T05:48:34.671Z,18.48
2023-05-16T05:51:01.678Z,18.37
2023-05-16T05:53:28.602Z,17.33
2023-05-16T05:55:55.539Z,17.60
2023-05-16T05:58:22.629Z,18.36
2023-05-16T06:00:49.564Z,18.35
2023-05-16T06:03:16.853Z,18.14
2023-05-16T06:05:43.951Z,17.80
2023-05-16T06:08:11.165Z,17.51
2023-05-16T06:10:38.126Z,17.67
2023-05-16T06:13:05.056Z,17.52
2023-05-16T06:15:32.151Z,17.99
2023-05-16T06:17:59.599Z,17.54
2023-05-16T06:20:26.785Z,17.21
2023-05-16T06:22:53.775Z,16.60
2023-05-16T06:25:20.858Z,16.61
2023-05-16T06:27:47.809Z,16.82
2023-05-16T06:30:14.819Z,16.99
2023-05-16T06:32:41.976Z,16.95
2023-05-16T06:35:09.951Z,17.50
2023-05-16T06:37:37.011Z,17.26
2023-05-16T06:40:04.097Z,17.64
2023-05-16T06:42:31.064Z,17.79
2023-05-16T06:44:58.023Z,18.38
2023-05-16T06:47:24.970Z,18.94
2023-05-16T06:49:52.136Z,19.02
2023-05-16T06:52:19.084Z,19.40
2023-05-16T06:54:46.034Z,19.77
2023-05-16T06:57:13.696Z,19.83
2023-05-16T06:59:41.094Z,20.06
2023-05-16T07:02:08.024Z,20.10
2023-05-16T07:04:36.891Z,19.21
2023-05-16T07:07:05.034Z,19.51
2023-05-16T07:09:31.966Z,18.82
2023-05-16T07:11:58.897Z,19.17
2023-05-16T07:14:25.857Z,19.47
2023-05-16T07:16:52.835Z,19.81
2023-05-16T07:19:19.900Z,19.45
2023-05-16T07:21:46.964Z,19.52
2023-05-16T07:24:13.954Z,19.43
2023-05-16T07:26:41.088Z,19.06
2023-05-16T07:29:08.046Z,19.11
2023-05-16T07:31:35.061Z,19.00
2023-05-16T07:34:02.080Z,19.12
2023-05-16T07:36:29.042Z,19.56
2023-05-16T07:38:56.482Z,19.80
2023-05-16T07:41:23.408Z,19.58
2023-05-16T07:43:50.308Z,19.32
2023-05-16T07:46:17.292Z,19.28
2023-05-16T07:48:44.272Z,18.75
2023-05-16T07:51:11.252Z,18.61
2023-05-16T07:53:38.222Z,18.63
2023-05-16T07:56:08.634Z,19.00
2023-05-16T07:58:35.980Z,19.03
2023-05-16T08:01:03.221Z,18.53
2023-05-16T08:03:30.696Z,17.91
2023-05-16T08:05:57.965Z,18.33
2023-05-16T08:08:25.035Z,18.61
2023-05-16T08:10:52.002Z,19.05
2023-05-16T08:13:19.020Z,18.46
2023-05-16T08:15:46.961Z,18.48
2023-05-16T08:18:16.548Z,18.71
2023-05-16T08:20:43.807Z,18.42
2023-05-16T08:23:10.797Z,18.42
2023-05-16T08:25:37.929Z,18.69
2023-05-16T08:28:05.011Z,18.87
2023-05-16T08:30:32.439Z,18.86
2023-05-16T08:32:59.467Z,18.78
2023-05-16T08:35:26.718Z,18.56
2023-05-16T08:37:53.878Z,18.48
2023-05-16T08:40:22.639Z,18.80
2023-05-16T08:42:52.338Z,18.66
2023-05-16T08:45:19.649Z,19.13
2023-05-16T08:47:50.134Z,19.57
2023-05-16T08:50:17.504Z,19.78
2023-05-16T08:52:45.754Z,19.65
2023-05-16T08:55:15.196Z,19.94
2023-05-16T08:57:42.410Z,20.01
2023-05-16T09:00:13.552Z,20.15
2023-05-16T09:02:42.330Z,20.29
2023-05-16T09:05:11.890Z,20.44
2023-05-16T09:07:38.901Z,20.63
2023-05-16T09:10:08.581Z,20.57
2023-05-16T09:12:36.205Z,20.78
2023-05-16T09:15:05.046Z,20.96
2023-05-16T09:17:39.988Z,20.91
2023-05-16T09:20:12.167Z,20.65
2023-05-16T09:22:39.766Z,20.73
2023-05-16T09:25:12.719Z,20.77
2023-05-16T09:27:54.041Z,20.54
2023-05-16T09:30:29.480Z,20.46
2023-05-16T09:32:56.690Z,20.89
2023-05-16T09:35:42.537Z,20.72
2023-05-16T09:38:18.142Z,20.51
2023-05-16T09:40:46.238Z,20.54
2023-05-16T09:43:17.697Z,20.56
2023-05-16T09:45:49.234Z,20.75
2023-05-16T09:48:18.306Z,20.46
2023-05-16T09:50:54.650Z,20.44
2023-05-16T09:53:29.464Z,20.21
2023-05-16T09:56:10.745Z,20.45
2023-05-16T09:58:39.758Z,20.62
2023-05-16T10:01:08.163Z,20.46
2023-05-16T10:03:37.457Z,20.77
2023-05-16T10:06:09.301Z,20.74
2023-05-16T10:08:37.442Z,20.69
2023-05-16T10:11:06.761Z,20.26
2023-05-16T10:13:35.594Z,20.09
2023-05-16T10:16:12.771Z,19.86
2023-05-16T10:18:40.965Z,19.83
2023-05-16T10:21:15.198Z,19.86
2023-05-16T10:23:43.821Z,20.30
2023-05-16T10:26:14.349Z,20.66
2023-05-16T10:28:42.320Z,20.98
2023-05-16T10:31:10.810Z,20.62
2023-05-16T10:33:38.177Z,20.60
2023-05-16T10:36:05.786Z,20.59
2023-05-16T10:38:34.028Z,20.66
2023-05-16T10:41:02.105Z,20.83
2023-05-16T10:43:31.163Z,20.58
2023-05-16T10:46:02.961Z,20.75
2023-05-16T10:48:35.729Z,20.86
2023-05-16T10:51:21.372Z,21.24
2023-05-16T10:53:48.682Z,20.93
2023-05-16T10:56:15.622Z,21.12
2023-05-16T10:58:44.142Z,20.88
2023-05-16T11:01:30.434Z,21.19
2023-05-16T11:03:57.594Z,21.45
2023-05-16T11:06:26.112Z,21.36
2023-05-16T11:09:11.120Z,21.64
2023-05-16T11:11:46.506Z,21.77
2023-05-16T11:14:22.444Z,21.85
2023-05-16T11:17:02.402Z,22.02
2023-05-16T11:19:50.593Z,22.08
2023-05-16T11:22:24.109Z,22.34
2023-05-16T11:25:06.057Z,21.89
2023-05-16T11:27:35.302Z,21.66
2023-05-16T11:30:13.607Z,21.54
2023-05-16T11:32:43.423Z,21.36
2023-05-16T11:35:14.654Z,21.44
2023-05-16T11:37:43.029Z,21.08
2023-05-16T11:40:12.557Z,21.06
2023-05-16T11:42:44.476Z,21.13
2023-05-16T11:45:16.914Z,20.91
2023-05-16T11:47:45.880Z,21.04
2023-05-16T11:50:14.473Z,20.97
2023-05-16T11:52:44.955Z,21.17
2023-05-16T11:55:14.492Z,21.09
2023-05-16T11:57:44.639Z,21.10
2023-05-16T12:00:19.688Z,21.52
2023-05-16T12:02:50.461Z,21.08
2023-05-16T12:05:19.371Z,21.14
2023-05-16T12:07:47.731Z,21.15
2023-05-16T12:10:17.080Z,20.95
2023-05-16T12:12:50.332Z,20.72
2023-05-16T12:15:17.632Z,20.91
2023-05-16T12:17:46.204Z,21.26
2023-05-16T12:20:14.794Z,21.06
2023-05-16T12:22:43.317Z,21.01
2023-05-16T12:25:23.213Z,21.31
2023-05-16T12:27:51.966Z,21.52
2023-05-16T12:30:21.506Z,21.40
2023-05-16T12:32:59.587Z,21.33
2023-05-16T12:35:30.723Z,21.26
2023-05-16T12:37:57.705Z,20.88
2023-05-16T12:40:28.431Z,21.16
2023-05-16T12:42:55.461Z,20.95
2023-05-16T12:45:23.430Z,20.67
2023-05-16T12:47:51.425Z,21.08
2023-05-16T12:50:18.461Z,21.17
2023-05-16T12:52:55.402Z,21.38
2023-05-16T12:55:23.284Z,21.12
2023-05-16T12:57:51.381Z,21.26
2023-05-16T13:00:20.269Z,21.22
2023-05-16T13:02:48.894Z,20.89
2023-05-16T13:05:16.632Z,20.99
2023-05-16T13:07:44.118Z,20.79
2023-05-16T13:10:12.359Z,20.76
2023-05-16T13:12:41.178Z,20.59
2023-05-16T13:15:09.934Z,20.11
2023-05-16T13:17:38.256Z,19.79
2023-05-16T13:20:10.071Z,19.75
2023-05-16T13:22:37.625Z,19.90
2023-05-16T13:25:06.478Z,20.01
2023-05-16T13:27:33.734Z,19.96
2023-05-16T13:30:00.998Z,20.09
2023-05-16T13:32:28.195Z,20.25
2023-05-16T13:34:55.351Z,20.12
2023-05-16T13:37:24.625Z,20.09
2023-05-16T13:39:52.719Z,20.19
2023-05-16T13:42:19.616Z,20.12
2023-05-16T13:44:46.563Z,20.04
2023-05-16T13:47:13.532Z,20.05
2023-05-16T13:49:40.516Z,19.87
2023-05-16T13:52:07.586Z,19.87
2023-05-16T13:54:34.534Z,19.80
2023-05-16T13:57:02.458Z,19.86
2023-05-16T13:59:55.233Z,19.93
2023-05-16T14:02:16.583Z,19.68
2023-05-16T14:04:43.575Z,19.64
2023-05-16T14:07:10.582Z,19.62
2023-05-16T14:09:39.642Z,19.34
2023-05-16T14:12:08.023Z,19.32
2023-05-16T14:14:35.670Z,19.30
2023-05-16T14:17:04.192Z,19.12
2023-05-16T14:19:31.569Z,19.02
2023-05-16T14:21:58.853Z,19.02
2023-05-16T14:24:25.823Z,18.94
2023-05-16T14:26:58.430Z,18.94
2023-05-16T14:29:25.992Z,18.94
2023-05-16T14:31:53.482Z,18.97
2023-05-16T14:34:20.839Z,18.89
2023-05-16T14:36:48.128Z,18.59
2023-05-16T14:39:15.925Z,18.39
2023-05-16T14:41:42.870Z,18.42
2023-05-16T14:44:10.092Z,18.45
2023-05-16T14:46:37.146Z,18.48
2023-05-16T14:49:04.305Z,18.45
2023-05-16T14:51:32.569Z,18.25
2023-05-16T14:53:59.518Z,18.18
2023-05-16T14:56:27.145Z,18.07
2023-05-16T14:58:54.577Z,18.03
2023-05-16T15:01:21.796Z,17.71
2023-05-16T15:03:55.474Z,17.58
2023-05-16T15:06:23.903Z,17.37
2023-05-16T15:08:51.083Z,17.14
2023-05-16T15:11:18.061Z,16.91
2023-05-16T15:13:45.023Z,16.60
2023-05-16T15:16:12.414Z,16.12
2023-05-16T15:18:39.569Z,15.90
2023-05-16T15:21:06.800Z,15.78
2023-05-16T15:23:34.227Z,15.66
2023-05-16T15:26:01.191Z,15.58
2023-05-16T15:28:28.156Z,15.33
2023-05-16T15:30:55.232Z,15.42
2023-05-16T15:33:22.133Z,15.56
2023-05-16T15:35:49.102Z,15.45
2023-05-16T15:38:16.072Z,15.28
2023-05-16T15:40:43.148Z,15.09
2023-05-16T15:43:10.075Z,14.95
2023-05-16T15:45:40.165Z,14.94
2023-05-16T15:48:07.900Z,14.84
2023-05-16T15:50:35.071Z,14.78
2023-05-16T15:53:02.179Z,14.83
2023-05-16T15:55:29.299Z,14.80
2023-05-16T15:57:58.767Z,14.83
2023-05-16T16:00:26.279Z,14.81
2023-05-16T16:02:53.561Z,14.93
2023-05-16T16:05:20.732Z,14.92
2023-05-16T16:07:47.790Z,14.89
2023-05-16T16:10:14.892Z,14.87
2023-05-16T16:12:42.001Z,14.62
2023-05-16T16:15:10.900Z,14.61
2023-05-16T16:17:38.099Z,14.64
2023-05-16T16:20:05.565Z,14.71
2023-05-16T16:22:32.483Z,14.72
2023-05-16T16:25:00.813Z,14.64
2023-05-16T16:27:27.816Z,14.67
2023-05-16T16:29:54.748Z,14.54
2023-05-16T16:32:21.722Z,14.55
2023-05-16T16:34:49.598Z,14.57
2023-05-16T16:37:16.822Z,14.61
2023-05-16T16:39:43.838Z,14.55
2023-05-16T16:42:11.000Z,14.47
2023-05-16T16:44:37.992Z,14.50
2023-05-16T16:47:05.246Z,14.47
2023-05-16T16:49:32.365Z,14.43
2023-05-16T16:51:59.403Z,14.40
2023-05-16T16:54:26.340Z,14.24
2023-05-16T16:56:53.296Z,14.14
2023-05-16T16:59:21.268Z,14.12
2023-05-16T17:01:48.236Z,14.15
2023-05-16T17:04:15.262Z,14.20
2023-05-16T17:06:42.301Z,14.27
2023-05-16T17:09:13.919Z,14.32
2023-05-16T17:11:41.938Z,14.37
2023-05-16T17:14:10.953Z,14.30
2023-05-16T17:16:38.767Z,14.26
2023-05-16T17:19:05.810Z,14.15
2023-05-16T17:21:34.918Z,14.02
2023-05-16T17:24:02.040Z,14.01
2023-05-16T17:26:29.442Z,13.94
2023-05-16T17:29:00.527Z,13.92
2023-05-16T17:31:28.456Z,13.83
2023-05-16T17:33:55.773Z,13.89
2023-05-16T17:36:22.875Z,13.85
2023-05-16T17:38:50.074Z,13.84
2023-05-16T17:41:17.384Z,13.74
2023-05-16T17:43:45.553Z,13.74
2023-05-16T17:46:12.945Z,13.67
2023-05-16T17:48:40.269Z,13.62
2023-05-16T17:51:07.296Z,13.54
2023-05-16T17:53:34.252Z,13.55
2023-05-16T17:56:01.182Z,13.51
2023-05-16T17:58:28.454Z,13.53
2023-05-16T18:00:56.629Z,13.47
2023-05-16T18:03:23.837Z,13.50
2023-05-16T18:05:51.267Z,13.49
2023-05-16T18:08:18.341Z,13.46
2023-05-16T18:10:52.023Z,13.47
2023-05-16T18:13:20.000Z,13.47
2023-05-16T18:15:47.002Z,13.45
2023-05-16T18:18:14.059Z,13.42
2023-05-16T18:20:41.128Z,13.45
2023-05-16T18:23:08.748Z,13.52
2023-05-16T18:25:35.838Z,13.60
2023-05-16T18:28:02.889Z,13.60
2023-05-16T18:30:29.880Z,13.53
2023-05-16T18:32:56.916Z,13.50
2023-05-16T18:35:24.024Z,13.48
2023-05-16T18:37:51.254Z,13.53
2023-05-16T18:40:18.400Z,13.59
2023-05-16T18:42:45.381Z,13.63
2023-05-16T18:45:12.402Z,13.68
2023-05-16T18:47:39.604Z,13.72
2023-05-16T18:50:07.444Z,13.71
2023-05-16T18:52:35.548Z,13.73
2023-05-16T18:55:02.595Z,13.68
2023-05-16T18:57:29.830Z,13.50
2023-05-16T18:59:57.124Z,13.36
2023-05-16T19:02:33.840Z,13.34
2023-05-16T19:05:08.679Z,13.33
2023-05-16T19:07:36.040Z,13.28
2023-05-16T19:10:04.002Z,13.16
2023-05-16T19:12:31.115Z,13.29
2023-05-16T19:14:58.176Z,13.29
2023-05-16T19:17:25.375Z,13.34
2023-05-16T19:19:52.977Z,13.34
2023-05-16T19:22:19.903Z,13.29
2023-05-16T19:24:46.854Z,13.24
2023-05-16T19:27:13.834Z,13.21
2023-05-16T19:29:41.576Z,13.15
2023-05-16T19:32:08.621Z,13.11
2023-05-16T19:34:38.897Z,13.11
2023-05-16T19:37:06.035Z,13.08
2023-05-16T19:39:33.038Z,13.08
2023-05-16T19:42:06.937Z,12.98
2023-05-16T19:44:34.209Z,12.94
2023-05-16T19:47:01.206Z,12.95
2023-05-16T19:49:28.723Z,12.97
2023-05-16T19:51:56.151Z,12.96
2023-05-16T19:54:23.122Z,12.98
2023-05-16T19:56:50.019Z,13.02
2023-05-16T20:02:04.621Z,12.71
2023-05-16T20:04:31.722Z,13.01
2023-05-16T20:06:58.749Z,12.99
2023-05-16T20:09:25.780Z,12.96
2023-05-16T20:11:53.911Z,12.92
2023-05-16T20:14:20.880Z,12.85
2023-05-16T20:16:47.894Z,12.84
2023-05-16T20:19:15.613Z,12.77
2023-05-16T20:21:42.595Z,12.70
2023-05-16T20:24:09.529Z,12.66
2023-05-16T20:26:36.471Z,12.63
2023-05-16T20:29:04.022Z,12.57
2023-05-16T20:31:30.942Z,12.53
2023-05-16T20:33:57.966Z,12.45
2023-05-16T20:36:25.133Z,12.51
2023-05-16T20:38:52.300Z,12.50
2023-05-16T20:41:19.368Z,12.45
2023-05-16T20:43:47.113Z,12.39
2023-05-16T20:46:14.000Z,12.28
2023-05-16T20:48:41.028Z,12.29
2023-05-16T20:51:08.637Z,12.19
2023-05-16T20:53:35.576Z,12.21
2023-05-16T20:56:02.539Z,12.21
2023-05-16T20:58:29.504Z,12.23
2023-05-16T21:00:56.533Z,12.21
2023-05-16T21:03:23.476Z,12.21
2023-05-16T21:05:50.540Z,12.13
2023-05-16T21:08:17.610Z,12.13
2023-05-16T21:10:44.545Z,12.08
2023-05-16T21:13:11.523Z,12.05
2023-05-16T21:15:39.852Z,12.01
2023-05-16T21:18:07.025Z,12.04
2023-05-16T21:20:34.061Z,12.05
2023-05-16T21:23:01.332Z,12.02
2023-05-16T21:25:28.561Z,11.98
2023-05-16T21:27:56.492Z,11.98
2023-05-16T21:30:23.473Z,11.93
2023-05-16T21:32:50.463Z,11.95
2023-05-16T21:35:17.596Z,11.83
2023-05-16T21:37:44.541Z,11.84
2023-05-16T21:40:14.940Z,11.82
2023-05-16T21:42:41.881Z,11.87
2023-05-16T21:45:12.776Z,11.83
2023-05-16T21:47:39.846Z,11.86
2023-05-16T21:50:07.707Z,11.86
2023-05-16T21:52:34.686Z,11.88
2023-05-16T21:55:01.619Z,11.81
2023-05-16T21:57:28.584Z,11.84
2023-05-16T21:59:55.611Z,11.79
2023-05-16T22:02:23.473Z,11.84
2023-05-16T22:04:51.153Z,11.81
2023-05-16T22:07:18.685Z,11.80
2023-05-16T22:09:46.131Z,11.70
2023-05-16T22:12:13.237Z,11.73
2023-05-16T22:14:40.171Z,11.71
2023-05-16T22:17:07.148Z,11.72
2023-05-16T22:19:34.133Z,11.73
2023-05-16T22:22:01.777Z,11.71
2023-05-16T22:24:28.718Z,11.68
2023-05-16T22:26:55.771Z,11.61
2023-05-16T22:29:22.808Z,11.59
2023-05-16T22:31:49.804Z,11.56
2023-05-16T22:34:20.011Z,11.53
2023-05-16T22:36:47.058Z,11.48
2023-05-16T22:39:14.001Z,11.57
2023-05-16T22:41:40.914Z,11.56
2023-05-16T22:44:07.861Z,11.53
2023-05-16T22:46:34.809Z,11.53
2023-05-16T22:49:01.869Z,11.55
2023-05-16T22:51:28.820Z,11.51
2023-05-16T22:53:55.812Z,11.45
2023-05-16T22:56:22.707Z,11.45
2023-05-16T22:58:49.680Z,11.44
2023-05-16T23:01:16.607Z,11.48
2023-05-16T23:03:43.636Z,11.51
2023-05-16T23:06:10.600Z,11.49
2023-05-16T23:08:37.627Z,11.46
2023-05-16T23:11:04.557Z,11.47
2023-05-16T23:13:31.498Z,11.43
2023-05-16T23:15:58.438Z,11.43
2023-05-16T23:18:25.762Z,11.41
2023-05-16T23:20:53.842Z,11.42
2023-05-16T23:23:20.863Z,11.43
2023-05-16T23:25:48.905Z,11.39
2023-05-16T23:28:15.832Z,11.34
2023-05-16T23:30:42.803Z,11.37
2023-05-16T23:33:09.930Z,11.30
2023-05-16T23:35:36.916Z,11.38
2023-05-16T23:38:03.837Z,11.18
2023-05-16T23:40:30.782Z,11.44
2023-05-16T23:42:57.690Z,11.30
2023-05-16T23:45:24.645Z,11.27
2023-05-16T23:47:51.693Z,11.22
2023-05-16T23:50:18.821Z,11.22
2023-05-16T23:52:45.864Z,11.25
2023-05-16T23:55:12.881Z,11.30
2023-05-16T23:57:41.396Z,11.32
